sensor_id;sensor_type;location;lat;lon;timestamp;pressure;altitude;pressure_sealevel;temperature;humidity
64610;BME280;51019;46.090;6.350;2022-11-27T00:01:30;97730.88;;;-1.96;100.00
64610;BME280;51019;46.090;6.350;2022-11-27T00:03:58;97733.97;;;-1.81;100.00
64610;BME280;51019;46.090;6.350;2022-11-27T00:06:28;97729.78;;;-1.87;100.00
64610;BME280;51019;46.090;6.350;2022-11-27T00:08:59;97703.16;;;-2.18;100.00
64610;BME280;51019;46.090;6.350;2022-11-27T00:11:28;97725.03;;;-2.02;100.00
64610;BME280;51019;46.090;6.350;2022-11-27T00:13:56;97741.88;;;-1.91;100.00
64610;BME280;51019;46.090;6.350;2022-11-27T00:16:24;97756.66;;;-2.00;100.00
64610;BME280;51019;46.090;6.350;2022-11-27T00:18:52;97739.56;;;-2.01;100.00
64610;BME280;51019;46.090;6.350;2022-11-27T00:21:22;97743.94;;;-2.05;100.00
64610;BME280;51019;46.090;6.350;2022-11-27T00:23:50;97717.28;;;-2.01;100.00
64610;BME280;51019;46.090;6.350;2022-11-27T00:26:20;97716.53;;;-2.04;100.00
64610;BME280;51019;46.090;6.350;2022-11-27T00:28:48;97709.69;;;-2.05;100.00
64610;BME280;51019;46.090;6.350;2022-11-27T00:31:16;97697.81;;;-2.09;100.00
64610;BME280;51019;46.090;6.350;2022-11-27T00:33:44;97669.28;;;-1.99;100.00
64610;BME280;51019;46.090;6.350;2022-11-27T00:36:13;97685.16;;;-1.83;100.00
64610;BME280;51019;46.090;6.350;2022-11-27T00:38:41;97682.50;;;-1.80;100.00
64610;BME280;51019;46.090;6.350;2022-11-27T00:41:09;97664.16;;;-2.00;100.00
64610;BME280;51019;46.090;6.350;2022-11-27T00:43:39;97694.34;;;-1.74;100.00
64610;BME280;51019;46.090;6.350;2022-11-27T00:46:07;97709.00;;;-1.78;100.00
64610;BME280;51019;46.090;6.350;2022-11-27T00:48:35;97702.16;;;-1.79;100.00
64610;BME280;51019;46.090;6.350;2022-11-27T00:51:04;97698.81;;;-1.81;100.00
64610;BME280;51019;46.090;6.350;2022-11-27T00:53:32;97688.66;;;-1.86;100.00
64610;BME280;51019;46.090;6.350;2022-11-27T00:56:00;97694.59;;;-1.84;100.00
64610;BME280;51019;46.090;6.350;2022-11-27T00:58:29;97700.13;;;-2.00;100.00
64610;BME280;51019;46.090;6.350;2022-11-27T01:01:04;97710.72;;;-2.12;100.00
64610;BME280;51019;46.090;6.350;2022-11-27T01:03:32;97706.25;;;-2.04;100.00
64610;BME280;51019;46.090;6.350;2022-11-27T01:06:02;97720.88;;;-2.08;100.00
64610;BME280;51019;46.090;6.350;2022-11-27T01:08:30;97714.38;;;-2.23;100.00
64610;BME280;51019;46.090;6.350;2022-11-27T01:10:58;97739.06;;;-2.15;100.00
64610;BME280;51019;46.090;6.350;2022-11-27T01:13:27;97745.03;;;-2.15;100.00
64610;BME280;51019;46.090;6.350;2022-11-27T01:16:01;97758.03;;;-2.23;100.00
64610;BME280;51019;46.090;6.350;2022-11-27T01:18:29;97738.56;;;-2.31;100.00
64610;BME280;51019;46.090;6.350;2022-11-27T01:20:56;97738.34;;;-2.22;100.00
64610;BME280;51019;46.090;6.350;2022-11-27T01:23:24;97746.38;;;-2.00;100.00
64610;BME280;51019;46.090;6.350;2022-11-27T01:25:51;97759.44;;;-2.09;100.00
64610;BME280;51019;46.090;6.350;2022-11-27T01:28:19;97685.50;;;-2.69;100.00
64610;BME280;51019;46.090;6.350;2022-11-27T01:30:47;97754.53;;;-2.18;100.00
64610;BME280;51019;46.090;6.350;2022-11-27T01:33:17;97721.66;;;-2.40;100.00
64610;BME280;51019;46.090;6.350;2022-11-27T01:35:52;97751.09;;;-2.17;100.00
64610;BME280;51019;46.090;6.350;2022-11-27T01:38:22;97748.28;;;-2.07;100.00
64610;BME280;51019;46.090;6.350;2022-11-27T01:40:55;97753.53;;;-2.13;100.00
64610;BME280;51019;46.090;6.350;2022-11-27T01:43:36;97741.44;;;-2.08;100.00
64610;BME280;51019;46.090;6.350;2022-11-27T01:46:04;97737.16;;;-2.07;100.00
64610;BME280;51019;46.090;6.350;2022-11-27T01:48:33;97731.13;;;-2.06;100.00
64610;BME280;51019;46.090;6.350;2022-11-27T01:51:00;97727.72;;;-2.07;100.00
64610;BME280;51019;46.090;6.350;2022-11-27T01:53:28;97711.59;;;-2.13;100.00
64610;BME280;51019;46.090;6.350;2022-11-27T01:55:57;97720.13;;;-2.13;100.00
64610;BME280;51019;46.090;6.350;2022-11-27T01:58:29;97717.44;;;-2.07;100.00
64610;BME280;51019;46.090;6.350;2022-11-27T02:00:57;97711.31;;;-2.03;100.00
64610;BME280;51019;46.090;6.350;2022-11-27T02:03:25;97710.34;;;-1.97;100.00
64610;BME280;51019;46.090;6.350;2022-11-27T02:05:54;97710.41;;;-2.00;100.00
64610;BME280;51019;46.090;6.350;2022-11-27T02:08:22;97683.34;;;-2.13;100.00
64610;BME280;51019;46.090;6.350;2022-11-27T02:10:51;97680.75;;;-2.13;100.00
64610;BME280;51019;46.090;6.350;2022-11-27T02:13:24;97609.28;;;-2.66;100.00
64610;BME280;51019;46.090;6.350;2022-11-27T02:15:59;97676.59;;;-2.17;100.00
64610;BME280;51019;46.090;6.350;2022-11-27T02:18:34;97658.84;;;-2.27;100.00
64610;BME280;51019;46.090;6.350;2022-11-27T02:21:10;97667.78;;;-2.43;100.00
64610;BME280;51019;46.090;6.350;2022-11-27T02:23:58;97611.50;;;-2.86;100.00
64610;BME280;51019;46.090;6.350;2022-11-27T02:29:34;97643.88;;;-2.45;100.00
64610;BME280;51019;46.090;6.350;2022-11-27T02:32:07;97661.38;;;-2.25;100.00
64610;BME280;51019;46.090;6.350;2022-11-27T02:34:41;97680.75;;;-2.13;100.00
64610;BME280;51019;46.090;6.350;2022-11-27T02:37:16;97680.03;;;-2.17;100.00
64610;BME280;51019;46.090;6.350;2022-11-27T02:39:50;97692.66;;;-2.09;100.00
64610;BME280;51019;46.090;6.350;2022-11-27T02:42:21;97692.38;;;-2.33;100.00
64610;BME280;51019;46.090;6.350;2022-11-27T02:44:54;97681.69;;;-2.51;100.00
64610;BME280;51019;46.090;6.350;2022-11-27T02:47:22;97697.13;;;-2.53;100.00
64610;BME280;51019;46.090;6.350;2022-11-27T02:49:50;97691.25;;;-2.58;100.00
64610;BME280;51019;46.090;6.350;2022-11-27T02:52:22;97691.22;;;-2.57;100.00
64610;BME280;51019;46.090;6.350;2022-11-27T02:54:53;97694.31;;;-2.42;100.00
64610;BME280;51019;46.090;6.350;2022-11-27T02:57:23;97693.47;;;-2.43;100.00
64610;BME280;51019;46.090;6.350;2022-11-27T02:59:54;97698.34;;;-2.32;100.00
64610;BME280;51019;46.090;6.350;2022-11-27T03:02:27;97702.06;;;-2.45;100.00
64610;BME280;51019;46.090;6.350;2022-11-27T03:04:58;97679.06;;;-2.87;100.00
64610;BME280;51019;46.090;6.350;2022-11-27T03:07:31;97696.72;;;-2.73;100.00
64610;BME280;51019;46.090;6.350;2022-11-27T03:10:06;97702.44;;;-2.61;100.00
64610;BME280;51019;46.090;6.350;2022-11-27T03:12:36;97696.28;;;-2.53;100.00
64610;BME280;51019;46.090;6.350;2022-11-27T03:15:06;97675.59;;;-2.47;100.00
64610;BME280;51019;46.090;6.350;2022-11-27T03:17:48;97668.78;;;-2.48;100.00
64610;BME280;51019;46.090;6.350;2022-11-27T03:20:20;97674.91;;;-2.54;100.00
64610;BME280;51019;46.090;6.350;2022-11-27T03:22:49;97671.59;;;-2.59;100.00
64610;BME280;51019;46.090;6.350;2022-11-27T03:25:19;97644.72;;;-2.81;100.00
64610;BME280;51019;46.090;6.350;2022-11-27T03:27:49;97672.84;;;-2.77;100.00
64610;BME280;51019;46.090;6.350;2022-11-27T03:30:21;97688.31;;;-2.80;100.00
64610;BME280;51019;46.090;6.350;2022-11-27T03:32:49;97700.19;;;-2.76;100.00
64610;BME280;51019;46.090;6.350;2022-11-27T03:35:20;97702.81;;;-2.79;100.00
64610;BME280;51019;46.090;6.350;2022-11-27T03:37:50;97681.84;;;-2.96;100.00
64610;BME280;51019;46.090;6.350;2022-11-27T03:40:18;97678.44;;;-2.97;100.00
64610;BME280;51019;46.090;6.350;2022-11-27T03:42:55;97691.94;;;-2.90;100.00
64610;BME280;51019;46.090;6.350;2022-11-27T03:45:32;97689.34;;;-2.88;100.00
64610;BME280;51019;46.090;6.350;2022-11-27T03:48:08;97682.47;;;-2.86;100.00
64610;BME280;51019;46.090;6.350;2022-11-27T03:50:49;97684.16;;;-2.85;100.00
64610;BME280;51019;46.090;6.350;2022-11-27T03:53:24;97645.38;;;-3.10;100.00
64610;BME280;51019;46.090;6.350;2022-11-27T03:56:00;97685.91;;;-2.87;100.00
64610;BME280;51019;46.090;6.350;2022-11-27T03:58:33;97684.41;;;-2.96;100.00
64610;BME280;51019;46.090;6.350;2022-11-27T04:01:07;97683.44;;;-2.92;100.00
64610;BME280;51019;46.090;6.350;2022-11-27T04:03:37;97701.78;;;-2.70;100.00
64610;BME280;51019;46.090;6.350;2022-11-27T04:06:05;97704.28;;;-2.67;100.00
64610;BME280;51019;46.090;6.350;2022-11-27T04:08:33;97692.09;;;-2.96;100.00
64610;BME280;51019;46.090;6.350;2022-11-27T04:11:00;97699.03;;;-3.01;100.00
64610;BME280;51019;46.090;6.350;2022-11-27T04:13:28;97699.09;;;-3.04;100.00
64610;BME280;51019;46.090;6.350;2022-11-27T04:15:59;97694.75;;;-3.01;100.00
64610;BME280;51019;46.090;6.350;2022-11-27T04:18:30;97695.50;;;-2.96;100.00
64610;BME280;51019;46.090;6.350;2022-11-27T04:20:58;97695.41;;;-2.93;100.00
64610;BME280;51019;46.090;6.350;2022-11-27T04:23:27;97690.50;;;-3.03;100.00
64610;BME280;51019;46.090;6.350;2022-11-27T04:25:54;97687.63;;;-2.88;100.00
64610;BME280;51019;46.090;6.350;2022-11-27T04:28:23;97689.75;;;-3.07;100.00
64610;BME280;51019;46.090;6.350;2022-11-27T04:30:54;97704.19;;;-3.03;100.00
64610;BME280;51019;46.090;6.350;2022-11-27T04:33:25;97695.19;;;-3.22;100.00
64610;BME280;51019;46.090;6.350;2022-11-27T04:35:54;97645.28;;;-3.47;100.00
64610;BME280;51019;46.090;6.350;2022-11-27T04:38:21;97685.53;;;-3.09;100.00
64610;BME280;51019;46.090;6.350;2022-11-27T04:40:50;97685.41;;;-3.05;100.00
64610;BME280;51019;46.090;6.350;2022-11-27T04:43:18;97695.81;;;-3.11;100.00
64610;BME280;51019;46.090;6.350;2022-11-27T04:45:45;97698.94;;;-2.97;100.00
64610;BME280;51019;46.090;6.350;2022-11-27T04:48:13;97673.28;;;-3.38;100.00
64610;BME280;51019;46.090;6.350;2022-11-27T04:50:41;97703.44;;;-3.08;100.00
64610;BME280;51019;46.090;6.350;2022-11-27T04:53:11;97708.56;;;-3.06;100.00
64610;BME280;51019;46.090;6.350;2022-11-27T04:55:38;97706.69;;;-3.00;100.00
64610;BME280;51019;46.090;6.350;2022-11-27T04:58:05;97696.50;;;-3.03;100.00
64610;BME280;51019;46.090;6.350;2022-11-27T05:00:34;97696.19;;;-3.29;100.00
64610;BME280;51019;46.090;6.350;2022-11-27T05:03:02;97688.78;;;-3.03;100.00
64610;BME280;51019;46.090;6.350;2022-11-27T05:05:30;97672.03;;;-3.17;100.00
64610;BME280;51019;46.090;6.350;2022-11-27T05:07:57;97683.88;;;-3.13;100.00
64610;BME280;51019;46.090;6.350;2022-11-27T05:10:26;97669.31;;;-3.11;100.00
64610;BME280;51019;46.090;6.350;2022-11-27T05:12:53;97666.34;;;-2.93;100.00
64610;BME280;51019;46.090;6.350;2022-11-27T05:15:22;97666.69;;;-3.07;100.00
64610;BME280;51019;46.090;6.350;2022-11-27T05:17:49;97664.88;;;-3.03;100.00
64610;BME280;51019;46.090;6.350;2022-11-27T05:20:17;97662.22;;;-2.99;100.00
64610;BME280;51019;46.090;6.350;2022-11-27T05:22:44;97674.84;;;-2.89;100.00
64610;BME280;51019;46.090;6.350;2022-11-27T05:25:12;97671.81;;;-3.07;100.00
64610;BME280;51019;46.090;6.350;2022-11-27T05:27:41;97649.19;;;-3.28;100.00
64610;BME280;51019;46.090;6.350;2022-11-27T05:30:09;97679.81;;;-3.23;100.00
64610;BME280;51019;46.090;6.350;2022-11-27T05:32:38;97668.44;;;-3.10;100.00
64610;BME280;51019;46.090;6.350;2022-11-27T05:35:05;97597.69;;;-3.60;100.00
64610;BME280;51019;46.090;6.350;2022-11-27T05:37:33;97637.31;;;-3.34;100.00
64610;BME280;51019;46.090;6.350;2022-11-27T05:40:00;97661.06;;;-3.25;100.00
64610;BME280;51019;46.090;6.350;2022-11-27T05:42:29;97661.00;;;-3.22;100.00
64610;BME280;51019;46.090;6.350;2022-11-27T05:44:58;97658.41;;;-3.21;100.00
64610;BME280;51019;46.090;6.350;2022-11-27T05:47:25;97655.00;;;-3.21;100.00
64610;BME280;51019;46.090;6.350;2022-11-27T05:49:52;97664.25;;;-3.14;100.00
64610;BME280;51019;46.090;6.350;2022-11-27T05:52:20;97616.19;;;-3.46;100.00
64610;BME280;51019;46.090;6.350;2022-11-27T05:54:48;97656.91;;;-3.31;100.00
64610;BME280;51019;46.090;6.350;2022-11-27T05:57:15;97651.09;;;-3.39;100.00
64610;BME280;51019;46.090;6.350;2022-11-27T05:59:44;97652.00;;;-3.42;100.00
64610;BME280;51019;46.090;6.350;2022-11-27T06:02:14;97644.16;;;-3.34;100.00
64610;BME280;51019;46.090;6.350;2022-11-27T06:04:41;97622.97;;;-3.42;100.00
64610;BME280;51019;46.090;6.350;2022-11-27T06:07:09;97609.34;;;-3.44;100.00
64610;BME280;51019;46.090;6.350;2022-11-27T06:09:37;97638.22;;;-3.36;100.00
64610;BME280;51019;46.090;6.350;2022-11-27T06:12:05;97633.81;;;-3.30;100.00
64610;BME280;51019;46.090;6.350;2022-11-27T06:14:33;97627.13;;;-3.38;100.00
64610;BME280;51019;46.090;6.350;2022-11-27T06:17:01;97534.06;;;-3.82;100.00
64610;BME280;51019;46.090;6.350;2022-11-27T06:19:31;97617.22;;;-3.13;100.00
64610;BME280;51019;46.090;6.350;2022-11-27T06:21:59;97629.41;;;-3.24;100.00
64610;BME280;51019;46.090;6.350;2022-11-27T06:24:27;97631.16;;;-3.26;100.00
64610;BME280;51019;46.090;6.350;2022-11-27T06:26:54;97622.81;;;-3.36;100.00
64610;BME280;51019;46.090;6.350;2022-11-27T06:29:22;97616.72;;;-3.29;100.00
64610;BME280;51019;46.090;6.350;2022-11-27T06:31:49;97601.41;;;-3.34;100.00
64610;BME280;51019;46.090;6.350;2022-11-27T06:34:16;97622.69;;;-3.28;100.00
64610;BME280;51019;46.090;6.350;2022-11-27T06:36:45;97575.38;;;-3.54;100.00
64610;BME280;51019;46.090;6.350;2022-11-27T06:39:13;97616.72;;;-3.29;100.00
64610;BME280;51019;46.090;6.350;2022-11-27T06:41:42;97620.84;;;-3.23;100.00
64610;BME280;51019;46.090;6.350;2022-11-27T06:44:09;97584.56;;;-3.45;100.00
64610;BME280;51019;46.090;6.350;2022-11-27T06:46:37;97603.97;;;-3.32;100.00
64610;BME280;51019;46.090;6.350;2022-11-27T06:49:05;97598.88;;;-3.35;100.00
64610;BME280;51019;46.090;6.350;2022-11-27T06:51:33;97604.06;;;-3.38;100.00
64610;BME280;51019;46.090;6.350;2022-11-27T06:54:03;97596.31;;;-3.35;100.00
64610;BME280;51019;46.090;6.350;2022-11-27T06:56:30;97595.09;;;-3.17;100.00
64610;BME280;51019;46.090;6.350;2022-11-27T06:58:59;97615.44;;;-3.10;100.00
64610;BME280;51019;46.090;6.350;2022-11-27T07:01:28;97622.09;;;-3.03;100.00
64610;BME280;51019;46.090;6.350;2022-11-27T07:03:58;97611.28;;;-3.15;100.00
64610;BME280;51019;46.090;6.350;2022-11-27T07:06:26;97493.44;;;-3.97;100.00
64610;BME280;51019;46.090;6.350;2022-11-27T07:08:54;97634.91;;;-3.01;100.00
64610;BME280;51019;46.090;6.350;2022-11-27T07:11:25;97580.81;;;-3.29;100.00
64610;BME280;51019;46.090;6.350;2022-11-27T07:13:54;97635.56;;;-2.93;100.00
64610;BME280;51019;46.090;6.350;2022-11-27T07:16:22;97636.56;;;-2.60;100.00
64610;BME280;51019;46.090;6.350;2022-11-27T07:18:52;97634.41;;;-2.78;100.00
64610;BME280;51019;46.090;6.350;2022-11-27T07:21:20;97642.34;;;-2.52;100.00
64610;BME280;51019;46.090;6.350;2022-11-27T07:23:50;97646.88;;;-2.63;100.00
64610;BME280;51019;46.090;6.350;2022-11-27T07:26:19;97633.09;;;-2.59;100.00
64610;BME280;51019;46.090;6.350;2022-11-27T07:28:48;97630.47;;;-2.58;100.00
64610;BME280;51019;46.090;6.350;2022-11-27T07:31:19;97603.09;;;-2.57;100.00
64610;BME280;51019;46.090;6.350;2022-11-27T07:33:46;97631.09;;;-2.48;100.00
64610;BME280;51019;46.090;6.350;2022-11-27T07:36:20;97589.91;;;-2.77;100.00
64610;BME280;51019;46.090;6.350;2022-11-27T07:38:49;97616.16;;;-2.66;100.00
64610;BME280;51019;46.090;6.350;2022-11-27T07:41:16;97631.91;;;-2.46;100.00
64610;BME280;51019;46.090;6.350;2022-11-27T07:43:44;97617.66;;;-2.24;100.00
64610;BME280;51019;46.090;6.350;2022-11-27T07:46:16;97606.56;;;-2.24;100.00
64610;BME280;51019;46.090;6.350;2022-11-27T07:48:44;97607.41;;;-2.24;100.00
64610;BME280;51019;46.090;6.350;2022-11-27T07:51:15;97601.25;;;-2.16;100.00
64610;BME280;51019;46.090;6.350;2022-11-27T07:53:44;97608.63;;;-2.04;100.00
64610;BME280;51019;46.090;6.350;2022-11-27T07:56:13;97602.59;;;-1.71;100.00
64610;BME280;51019;46.090;6.350;2022-11-27T07:58:41;97607.47;;;-1.62;100.00
64610;BME280;51019;46.090;6.350;2022-11-27T08:01:15;97587.84;;;-1.95;100.00
64610;BME280;51019;46.090;6.350;2022-11-27T08:03:44;97454.75;;;-2.77;100.00
64610;BME280;51019;46.090;6.350;2022-11-27T08:06:16;97558.84;;;-2.00;100.00
64610;BME280;51019;46.090;6.350;2022-11-27T08:08:44;97592.31;;;-1.71;100.00
64610;BME280;51019;46.090;6.350;2022-11-27T08:11:19;97537.09;;;-1.89;100.00
64610;BME280;51019;46.090;6.350;2022-11-27T08:13:48;97584.97;;;-1.54;100.00
64610;BME280;51019;46.090;6.350;2022-11-27T08:16:18;97570.88;;;-1.70;100.00
64610;BME280;51019;46.090;6.350;2022-11-27T08:18:45;97584.66;;;-1.43;100.00
64610;BME280;51019;46.090;6.350;2022-11-27T08:21:13;97564.19;;;-1.18;100.00
64610;BME280;51019;46.090;6.350;2022-11-27T08:23:41;97572.25;;;-1.01;100.00
64610;BME280;51019;46.090;6.350;2022-11-27T08:26:09;97570.50;;;-1.00;100.00
64610;BME280;51019;46.090;6.350;2022-11-27T08:28:39;97563.38;;;-0.91;100.00
64610;BME280;51019;46.090;6.350;2022-11-27T08:31:09;97573.72;;;-0.40;100.00
64610;BME280;51019;46.090;6.350;2022-11-27T08:33:40;97563.22;;;0.16;100.00
64610;BME280;51019;46.090;6.350;2022-11-27T08:36:08;97553.16;;;0.33;100.00
64610;BME280;51019;46.090;6.350;2022-11-27T08:38:36;97553.66;;;0.20;100.00
64610;BME280;51019;46.090;6.350;2022-11-27T08:41:04;97517.56;;;0.43;100.00
64610;BME280;51019;46.090;6.350;2022-11-27T08:43:32;97546.00;;;0.87;100.00
64610;BME280;51019;46.090;6.350;2022-11-27T08:46:02;97542.69;;;1.05;100.00
64610;BME280;51019;46.090;6.350;2022-11-27T08:48:30;97537.78;;;1.63;100.00
64610;BME280;51019;46.090;6.350;2022-11-27T08:51:05;97543.22;;;2.36;100.00
64610;BME280;51019;46.090;6.350;2022-11-27T08:53:35;97535.72;;;3.05;100.00
64610;BME280;51019;46.090;6.350;2022-11-27T08:56:07;97507.78;;;3.48;100.00
64610;BME280;51019;46.090;6.350;2022-11-27T08:58:35;97507.53;;;4.20;100.00
64610;BME280;51019;46.090;6.350;2022-11-27T09:01:06;97545.50;;;4.71;100.00
64610;BME280;51019;46.090;6.350;2022-11-27T09:03:34;97535.34;;;4.51;100.00
64610;BME280;51019;46.090;6.350;2022-11-27T09:06:05;97529.88;;;5.50;98.36
64610;BME280;51019;46.090;6.350;2022-11-27T09:08:34;97527.50;;;5.15;99.21
64610;BME280;51019;46.090;6.350;2022-11-27T09:11:01;97527.97;;;4.74;100.00
64610;BME280;51019;46.090;6.350;2022-11-27T09:13:30;97523.88;;;4.86;99.70
64610;BME280;51019;46.090;6.350;2022-11-27T09:16:01;97525.22;;;5.09;100.00
64610;BME280;51019;46.090;6.350;2022-11-27T09:18:29;97523.63;;;4.59;100.00
64610;BME280;51019;46.090;6.350;2022-11-27T09:20:58;97527.34;;;4.71;100.00
64610;BME280;51019;46.090;6.350;2022-11-27T09:23:28;97521.97;;;4.25;100.00
64610;BME280;51019;46.090;6.350;2022-11-27T09:25:57;97490.84;;;4.25;100.00
64610;BME280;51019;46.090;6.350;2022-11-27T09:28:25;97516.78;;;4.25;100.00
64610;BME280;51019;46.090;6.350;2022-11-27T09:30:54;97526.78;;;4.49;100.00
64610;BME280;51019;46.090;6.350;2022-11-27T09:33:22;97515.22;;;3.88;100.00
64610;BME280;51019;46.090;6.350;2022-11-27T09:35:50;97513.94;;;3.62;100.00
64610;BME280;51019;46.090;6.350;2022-11-27T09:38:17;97476.06;;;4.10;100.00
64610;BME280;51019;46.090;6.350;2022-11-27T09:40:48;97490.97;;;4.22;100.00
64610;BME280;51019;46.090;6.350;2022-11-27T09:43:19;97510.91;;;4.86;100.00
64610;BME280;51019;46.090;6.350;2022-11-27T09:45:52;97499.59;;;5.19;100.00
64610;BME280;51019;46.090;6.350;2022-11-27T09:48:24;97487.41;;;4.25;100.00
64610;BME280;51019;46.090;6.350;2022-11-27T09:50:55;97506.06;;;4.31;100.00
64610;BME280;51019;46.090;6.350;2022-11-27T09:53:27;97500.50;;;5.02;100.00
64610;BME280;51019;46.090;6.350;2022-11-27T09:56:02;97481.38;;;5.64;100.00
64610;BME280;51019;46.090;6.350;2022-11-27T09:58:36;97487.91;;;5.26;100.00
64610;BME280;51019;46.090;6.350;2022-11-27T10:01:09;97496.56;;;4.48;100.00
64610;BME280;51019;46.090;6.350;2022-11-27T10:03:40;97491.72;;;5.04;100.00
64610;BME280;51019;46.090;6.350;2022-11-27T10:06:19;97478.50;;;4.62;100.00
64610;BME280;51019;46.090;6.350;2022-11-27T10:09:01;97453.34;;;4.47;100.00
64610;BME280;51019;46.090;6.350;2022-11-27T10:11:41;97457.78;;;4.45;100.00
64610;BME280;51019;46.090;6.350;2022-11-27T10:14:29;97428.66;;;4.71;100.00
64610;BME280;51019;46.090;6.350;2022-11-27T10:17:02;97452.00;;;5.02;100.00
64610;BME280;51019;46.090;6.350;2022-11-27T10:19:37;97462.47;;;5.91;94.34
64610;BME280;51019;46.090;6.350;2022-11-27T10:22:14;97454.97;;;6.14;90.28
64610;BME280;51019;46.090;6.350;2022-11-27T10:24:49;97454.47;;;6.50;88.37
64610;BME280;51019;46.090;6.350;2022-11-27T10:27:30;97450.50;;;6.31;85.97
64610;BME280;51019;46.090;6.350;2022-11-27T10:30:00;97444.78;;;6.93;87.90
64610;BME280;51019;46.090;6.350;2022-11-27T10:32:31;97432.19;;;7.00;85.36
64610;BME280;51019;46.090;6.350;2022-11-27T10:35:02;97446.16;;;7.26;82.92
64610;BME280;51019;46.090;6.350;2022-11-27T10:37:36;97439.44;;;7.09;87.52
64610;BME280;51019;46.090;6.350;2022-11-27T10:40:20;97411.06;;;6.78;89.54
64610;BME280;51019;46.090;6.350;2022-11-27T10:42:57;97432.72;;;6.51;94.83
64610;BME280;51019;46.090;6.350;2022-11-27T10:45:37;97436.88;;;6.95;92.28
64610;BME280;51019;46.090;6.350;2022-11-27T10:48:08;97433.16;;;6.99;90.73
64610;BME280;51019;46.090;6.350;2022-11-27T10:50:36;97411.44;;;5.88;92.91
64610;BME280;51019;46.090;6.350;2022-11-27T10:53:06;97431.22;;;6.62;92.34
64610;BME280;51019;46.090;6.350;2022-11-27T10:55:46;97371.38;;;5.62;96.47
64610;BME280;51019;46.090;6.350;2022-11-27T10:58:23;97424.22;;;5.77;97.20
64610;BME280;51019;46.090;6.350;2022-11-27T11:00:59;97407.91;;;5.31;97.96
64610;BME280;51019;46.090;6.350;2022-11-27T11:03:27;97411.13;;;5.50;97.42
64610;BME280;51019;46.090;6.350;2022-11-27T11:05:57;97374.22;;;5.29;98.73
64610;BME280;51019;46.090;6.350;2022-11-27T11:08:25;97390.81;;;5.27;99.90
64610;BME280;51019;46.090;6.350;2022-11-27T11:10:57;97384.63;;;5.43;97.74
64610;BME280;51019;46.090;6.350;2022-11-27T11:13:27;97369.84;;;5.00;100.00
64610;BME280;51019;46.090;6.350;2022-11-27T11:15:59;97342.25;;;4.83;100.00
64610;BME280;51019;46.090;6.350;2022-11-27T11:18:28;97346.50;;;5.14;100.00
64610;BME280;51019;46.090;6.350;2022-11-27T11:20:57;97365.69;;;5.41;100.00
64610;BME280;51019;46.090;6.350;2022-11-27T11:23:28;97334.38;;;5.43;100.00
64610;BME280;51019;46.090;6.350;2022-11-27T11:25:59;97361.50;;;5.39;100.00
64610;BME280;51019;46.090;6.350;2022-11-27T11:28:30;97360.69;;;5.38;99.43
64610;BME280;51019;46.090;6.350;2022-11-27T11:31:01;97353.06;;;5.35;100.00
64610;BME280;51019;46.090;6.350;2022-11-27T11:33:30;97338.88;;;5.41;100.00
64610;BME280;51019;46.090;6.350;2022-11-27T11:36:06;97340.91;;;5.50;97.21
64610;BME280;51019;46.090;6.350;2022-11-27T11:38:35;97306.56;;;5.59;92.48
64610;BME280;51019;46.090;6.350;2022-11-27T11:41:04;97320.75;;;5.68;89.79
64610;BME280;51019;46.090;6.350;2022-11-27T11:43:35;97322.53;;;5.96;88.29
64610;BME280;51019;46.090;6.350;2022-11-27T11:46:17;97313.13;;;5.79;98.00
64610;BME280;51019;46.090;6.350;2022-11-27T11:49:01;97300.06;;;5.52;98.36
64610;BME280;51019;46.090;6.350;2022-11-27T11:51:39;97288.00;;;5.51;100.00
64610;BME280;51019;46.090;6.350;2022-11-27T11:54:27;97279.16;;;5.39;98.86
64610;BME280;51019;46.090;6.350;2022-11-27T11:56:59;97284.44;;;5.38;94.21
64610;BME280;51019;46.090;6.350;2022-11-27T11:59:35;97266.44;;;5.63;92.52
64610;BME280;51019;46.090;6.350;2022-11-27T12:02:35;97271.25;;;5.55;96.17
64610;BME280;51019;46.090;6.350;2022-11-27T12:05:18;97256.59;;;5.40;98.18
64610;BME280;51019;46.090;6.350;2022-11-27T12:10:50;97225.22;;;5.15;99.10
64610;BME280;51019;46.090;6.350;2022-11-27T12:13:33;97217.88;;;5.21;96.88
64610;BME280;51019;46.090;6.350;2022-11-27T12:16:15;97236.47;;;5.29;94.85
64610;BME280;51019;46.090;6.350;2022-11-27T12:18:58;97227.06;;;4.84;95.32
64610;BME280;51019;46.090;6.350;2022-11-27T12:21:36;97229.16;;;4.78;95.77
64610;BME280;51019;46.090;6.350;2022-11-27T12:24:20;97239.09;;;4.71;98.95
64610;BME280;51019;46.090;6.350;2022-11-27T12:27:02;97227.06;;;4.84;100.00
64610;BME280;51019;46.090;6.350;2022-11-27T12:29:53;97234.41;;;5.34;98.76
64610;BME280;51019;46.090;6.350;2022-11-27T12:32:53;97250.34;;;5.42;98.28
64610;BME280;51019;46.090;6.350;2022-11-27T12:35:30;97237.44;;;4.98;100.00
64610;BME280;51019;46.090;6.350;2022-11-27T12:38:18;97219.63;;;4.92;100.00
64610;BME280;51019;46.090;6.350;2022-11-27T12:43:40;97219.09;;;5.16;100.00
64610;BME280;51019;46.090;6.350;2022-11-27T12:46:12;97203.50;;;5.16;99.39
64610;BME280;51019;46.090;6.350;2022-11-27T12:48:47;97202.72;;;5.56;98.42
64610;BME280;51019;46.090;6.350;2022-11-27T12:51:20;97179.41;;;5.55;97.65
64610;BME280;51019;46.090;6.350;2022-11-27T12:53:51;97191.91;;;5.76;95.78
64610;BME280;51019;46.090;6.350;2022-11-27T12:56:24;97148.75;;;5.60;97.04
64610;BME280;51019;46.090;6.350;2022-11-27T12:58:56;97138.63;;;5.55;98.02
64610;BME280;51019;46.090;6.350;2022-11-27T13:01:29;97176.75;;;5.83;98.38
64610;BME280;51019;46.090;6.350;2022-11-27T13:04:18;97154.50;;;5.65;96.55
64610;BME280;51019;46.090;6.350;2022-11-27T13:06:53;97186.50;;;5.94;97.36
64610;BME280;51019;46.090;6.350;2022-11-27T13:09:25;97179.53;;;5.94;96.50
64610;BME280;51019;46.090;6.350;2022-11-27T13:12:08;97176.00;;;5.95;95.89
64610;BME280;51019;46.090;6.350;2022-11-27T13:14:40;97169.59;;;5.87;95.98
64610;BME280;51019;46.090;6.350;2022-11-27T13:17:11;97170.91;;;5.79;93.54
64610;BME280;51019;46.090;6.350;2022-11-27T13:19:46;97160.59;;;5.51;93.48
64610;BME280;51019;46.090;6.350;2022-11-27T13:22:17;97151.38;;;5.60;91.59
64610;BME280;51019;46.090;6.350;2022-11-27T13:24:46;97141.72;;;5.47;90.48